Time;durP1;ratioP1;P1;durP2;ratioP2;P2;SDS_P1;SDS_P2;PMS_P1;PMS_P2;Temp;Humidity;BMP_temperature;BMP_pressure;BME280_temperature;BME280_humidity;BME280_pressure;Samples;Min_cycle;Max_cycle;Signal;HPM_P1;HPM_P2
2021/12/26 00:02:07;;;;;;;9.13;8.13;;;;;;;;;;5076896;28;20184;-75
2021/12/26 00:04:34;;;;;;;8.43;7.53;;;;;;;;;;5062439;28;20635;-75
2021/12/26 00:07:01;;;;;;;8.17;7.37;;;;;;;;;;5082788;28;20283;-75
2021/12/26 00:09:27;;;;;;;9.60;8.27;;;;;;;;;;5077467;28;20622;-75
2021/12/26 00:11:53;;;;;;;8.70;7.80;;;;;;;;;;5081789;28;20173;-75
2021/12/26 00:14:20;;;;;;;13.70;10.50;;;;;;;;;;5077186;28;20272;-75
2021/12/26 00:16:47;;;;;;;10.63;9.40;;;;;;;;;;5073587;28;20196;-75
2021/12/26 00:19:13;;;;;;;11.07;8.90;;;;;;;;;;5074143;28;20181;-75
2021/12/26 00:21:39;;;;;;;11.03;8.87;;;;;;;;;;5078025;28;20265;-75
2021/12/26 00:24:06;;;;;;;9.63;8.43;;;;;;;;;;5078115;28;20213;-75
2021/12/26 00:26:32;;;;;;;10.13;9.07;;;;;;;;;;5079137;28;20694;-75
2021/12/26 00:28:59;;;;;;;10.60;8.73;;;;;;;;;;5089104;28;20462;-75
2021/12/26 00:31:25;;;;;;;10.00;8.90;;;;;;;;;;5067453;28;20177;-75
2021/12/26 00:33:52;;;;;;;12.03;9.47;;;;;;;;;;5087269;28;20196;-75
2021/12/26 00:36:18;;;;;;;9.60;8.53;;;;;;;;;;5086136;28;20208;-75
2021/12/26 00:38:44;;;;;;;10.43;9.33;;;;;;;;;;5071497;28;20177;-75
2021/12/26 00:41:10;;;;;;;10.23;8.60;;;;;;;;;;5069312;28;20189;-75
2021/12/26 00:43:37;;;;;;;9.87;8.57;;;;;;;;;;5087479;28;20227;-75
2021/12/26 00:46:04;;;;;;;10.93;9.00;;;;;;;;;;5051768;28;20304;-75
2021/12/26 00:48:30;;;;;;;11.27;8.63;;;;;;;;;;5088376;28;20586;-75
2021/12/26 00:50:57;;;;;;;10.73;8.47;;;;;;;;;;5091076;28;20199;-75
2021/12/26 00:53:23;;;;;;;9.97;8.40;;;;;;;;;;5067011;28;20717;-75
2021/12/26 00:55:50;;;;;;;8.90;8.00;;;;;;;;;;5081739;28;20200;-75
2021/12/26 00:58:17;;;;;;;9.80;8.80;;;;;;;;;;5070207;28;20279;-75
2021/12/26 01:00:44;;;;;;;10.27;8.43;;;;;;;;;;5085095;28;20185;-75
2021/12/26 01:03:11;;;;;;;10.30;8.50;;;;;;;;;;5070660;28;20299;-75
2021/12/26 01:05:39;;;;;;;8.77;7.80;;;;;;;;;;5079652;28;20205;-75
2021/12/26 01:08:08;;;;;;;10.77;9.23;;;;;;;;;;5088328;28;20183;-75
2021/12/26 01:10:44;;;;;;;11.00;8.90;;;;;;;;;;5084173;28;20187;-75
2021/12/26 01:13:21;;;;;;;8.80;7.67;;;;;;;;;;5089768;28;20180;-75
2021/12/26 01:15:49;;;;;;;9.83;8.43;;;;;;;;;;5096419;28;20204;-75
2021/12/26 01:18:23;;;;;;;9.53;8.50;;;;;;;;;;5092661;28;20671;-74
2021/12/26 01:20:58;;;;;;;10.03;8.33;;;;;;;;;;5076505;28;20203;-75
2021/12/26 01:23:26;;;;;;;11.30;8.60;;;;;;;;;;5072224;28;20220;-75
2021/12/26 01:25:53;;;;;;;9.37;7.80;;;;;;;;;;5082734;28;20744;-75
2021/12/26 01:28:23;;;;;;;9.43;7.77;;;;;;;;;;5075547;28;20228;-75
2021/12/26 01:30:51;;;;;;;9.53;8.00;;;;;;;;;;5069033;28;20583;-75
2021/12/26 01:33:19;;;;;;;8.73;7.83;;;;;;;;;;5092332;28;20202;-75
2021/12/26 01:35:52;;;;;;;9.50;7.87;;;;;;;;;;5061157;28;20261;-75
2021/12/26 01:38:28;;;;;;;10.63;8.80;;;;;;;;;;5092066;28;20177;-75
2021/12/26 01:41:10;;;;;;;9.70;8.70;;;;;;;;;;5071381;28;20204;-75
2021/12/26 01:43:45;;;;;;;10.40;8.50;;;;;;;;;;5069303;28;20287;-75
2021/12/26 01:46:21;;;;;;;10.13;8.47;;;;;;;;;;5075024;28;20226;-75
2021/12/26 01:48:49;;;;;;;9.40;8.00;;;;;;;;;;5074845;28;20659;-75
2021/12/26 01:51:15;;;;;;;9.13;7.87;;;;;;;;;;5078524;28;20177;-75
2021/12/26 01:53:43;;;;;;;10.93;8.73;;;;;;;;;;5072199;28;20192;-75
2021/12/26 01:56:11;;;;;;;10.87;8.73;;;;;;;;;;5091405;28;20333;-75
2021/12/26 01:58:39;;;;;;;12.10;8.53;;;;;;;;;;5085765;28;20180;-75
2021/12/26 02:01:17;;;;;;;12.67;9.50;;;;;;;;;;5091651;28;20176;-75
2021/12/26 02:03:43;;;;;;;10.40;9.03;;;;;;;;;;5074789;28;20212;-75
2021/12/26 02:06:10;;;;;;;11.37;9.80;;;;;;;;;;5091367;28;20573;-75
2021/12/26 02:08:45;;;;;;;12.10;10.03;;;;;;;;;;5091776;28;20259;-75
2021/12/26 02:11:11;;;;;;;11.50;9.50;;;;;;;;;;5063306;28;20212;-75
2021/12/26 02:13:38;;;;;;;12.37;9.63;;;;;;;;;;5091577;28;20191;-75
2021/12/26 02:16:09;;;;;;;11.67;10.00;;;;;;;;;;5070918;28;20251;-75
2021/12/26 02:18:35;;;;;;;13.40;11.10;;;;;;;;;;5071305;28;20181;-75
2021/12/26 02:24:15;;;;;;;13.43;10.97;;;;;;;;;;5091295;28;20208;-75
2021/12/26 02:29:17;;;;;;;12.37;10.70;;;;;;;;;;5088526;28;20189;-75
2021/12/26 02:31:43;;;;;;;14.37;11.73;;;;;;;;;;5087582;28;20210;-75
2021/12/26 02:34:10;;;;;;;11.80;9.97;;;;;;;;;;5060285;28;20189;-75
2021/12/26 02:36:36;;;;;;;12.67;10.53;;;;;;;;;;5054273;28;20197;-75
2021/12/26 02:39:03;;;;;;;13.37;10.90;;;;;;;;;;5064872;28;20183;-75
2021/12/26 02:41:30;;;;;;;11.77;10.03;;;;;;;;;;5091283;28;20693;-75
2021/12/26 02:43:56;;;;;;;12.07;9.63;;;;;;;;;;5089233;28;20212;-75
2021/12/26 02:46:22;;;;;;;11.90;9.90;;;;;;;;;;5086496;28;20727;-75
2021/12/26 02:48:48;;;;;;;11.17;9.77;;;;;;;;;;5073653;28;20181;-75
2021/12/26 02:51:15;;;;;;;11.47;9.90;;;;;;;;;;5073722;28;20578;-75
2021/12/26 02:53:41;;;;;;;10.57;9.30;;;;;;;;;;5090815;28;20268;-75
2021/12/26 02:56:07;;;;;;;12.23;9.63;;;;;;;;;;5073808;28;20241;-75
2021/12/26 02:58:34;;;;;;;14.83;11.40;;;;;;;;;;5073932;28;20321;-74
2021/12/26 03:01:03;;;;;;;11.23;9.50;;;;;;;;;;5089972;28;20180;-75
2021/12/26 03:03:29;;;;;;;10.80;9.63;;;;;;;;;;5092225;28;20204;-75
2021/12/26 03:06:02;;;;;;;12.70;10.03;;;;;;;;;;5090089;28;20195;-75
2021/12/26 03:08:28;;;;;;;11.40;9.43;;;;;;;;;;5090310;28;20644;-75
2021/12/26 03:10:55;;;;;;;12.97;10.63;;;;;;;;;;5090933;28;20176;-75
2021/12/26 03:13:22;;;;;;;12.80;9.60;;;;;;;;;;5092398;28;20187;-75
2021/12/26 03:15:48;;;;;;;12.63;10.00;;;;;;;;;;5065644;28;20575;-75
2021/12/26 03:18:15;;;;;;;11.67;9.83;;;;;;;;;;5073178;28;20181;-74
2021/12/26 03:20:43;;;;;;;12.57;10.57;;;;;;;;;;5090328;28;20199;-75
2021/12/26 03:23:11;;;;;;;12.77;10.20;;;;;;;;;;5073819;28;20699;-75
2021/12/26 03:25:37;;;;;;;11.83;10.00;;;;;;;;;;5073176;28;20197;-75
2021/12/26 03:28:05;;;;;;;13.60;10.43;;;;;;;;;;5090235;28;22217;-75
2021/12/26 03:30:31;;;;;;;11.83;9.40;;;;;;;;;;5073148;28;20214;-75
2021/12/26 03:32:59;;;;;;;12.57;9.60;;;;;;;;;;5089738;28;20266;-75
2021/12/26 03:35:26;;;;;;;13.90;10.80;;;;;;;;;;5091071;28;20208;-74
2021/12/26 03:37:52;;;;;;;12.50;10.30;;;;;;;;;;5090070;28;20648;-75
2021/12/26 03:40:38;;;;;;;11.90;10.00;;;;;;;;;;5090819;28;20602;-75
2021/12/26 03:43:04;;;;;;;11.97;10.03;;;;;;;;;;5054856;28;20205;-75
2021/12/26 03:45:31;;;;;;;12.90;10.30;;;;;;;;;;5070132;28;20224;-75
2021/12/26 03:47:57;;;;;;;13.63;10.57;;;;;;;;;;5062035;28;20518;-75
2021/12/26 03:50:27;;;;;;;14.07;10.80;;;;;;;;;;5090075;28;20263;-75
2021/12/26 03:52:56;;;;;;;12.43;10.20;;;;;;;;;;5073455;28;20271;-74
2021/12/26 03:55:25;;;;;;;11.57;9.53;;;;;;;;;;5072856;28;20224;-75
2021/12/26 03:57:51;;;;;;;13.33;9.53;;;;;;;;;;5090248;28;20568;-75
2021/12/26 04:00:17;;;;;;;11.93;9.37;;;;;;;;;;5091648;28;20188;-75
2021/12/26 04:02:45;;;;;;;12.87;10.27;;;;;;;;;;5073122;28;20672;-75
2021/12/26 04:05:12;;;;;;;13.07;10.60;;;;;;;;;;5072190;28;20633;-75
2021/12/26 04:07:38;;;;;;;14.27;9.77;;;;;;;;;;5089346;28;20188;-75
2021/12/26 04:10:05;;;;;;;13.30;10.70;;;;;;;;;;5089800;28;20176;-74
2021/12/26 04:12:36;;;;;;;14.20;11.20;;;;;;;;;;5089667;28;20548;-75
2021/12/26 04:15:08;;;;;;;13.07;10.17;;;;;;;;;;5072316;28;20233;-74
2021/12/26 04:17:35;;;;;;;11.57;9.30;;;;;;;;;;5088523;28;20269;-75
2021/12/26 04:20:01;;;;;;;12.97;10.23;;;;;;;;;;5056266;28;20218;-75
2021/12/26 04:22:28;;;;;;;12.00;10.00;;;;;;;;;;5089495;28;20176;-75
2021/12/26 04:24:57;;;;;;;12.90;10.50;;;;;;;;;;5089152;28;20183;-75
2021/12/26 04:27:24;;;;;;;11.77;9.83;;;;;;;;;;5089778;28;20173;-74
2021/12/26 04:29:51;;;;;;;12.37;10.23;;;;;;;;;;5089603;28;20186;-74
2021/12/26 04:32:18;;;;;;;12.23;10.13;;;;;;;;;;5088347;28;20643;-75
2021/12/26 04:34:44;;;;;;;12.13;10.07;;;;;;;;;;5088396;28;20216;-75
2021/12/26 04:37:11;;;;;;;12.53;10.47;;;;;;;;;;5089280;28;20225;-75
2021/12/26 04:39:37;;;;;;;12.30;9.77;;;;;;;;;;5069569;28;20231;-75
2021/12/26 04:42:04;;;;;;;10.50;8.37;;;;;;;;;;5069640;28;20188;-75
2021/12/26 04:44:51;;;;;;;11.30;8.97;;;;;;;;;;5073897;28;20190;-75
2021/12/26 04:47:37;;;;;;;12.70;9.67;;;;;;;;;;5091978;28;20660;-75
2021/12/26 04:50:05;;;;;;;11.07;9.53;;;;;;;;;;5076624;28;20230;-75
2021/12/26 04:52:43;;;;;;;14.27;10.37;;;;;;;;;;5074426;28;20585;-75
2021/12/26 04:55:16;;;;;;;12.33;9.67;;;;;;;;;;5075834;28;20235;-75
2021/12/26 04:57:42;;;;;;;11.40;9.23;;;;;;;;;;5092951;28;20252;-75
2021/12/26 05:00:10;;;;;;;14.97;11.23;;;;;;;;;;5075328;28;20249;-75
2021/12/26 05:02:39;;;;;;;12.93;10.23;;;;;;;;;;5094697;28;20296;-75
2021/12/26 05:05:06;;;;;;;14.20;11.27;;;;;;;;;;5092358;28;20195;-75
2021/12/26 05:07:33;;;;;;;13.67;10.93;;;;;;;;;;5093701;28;20187;-75
2021/12/26 05:09:59;;;;;;;14.40;11.27;;;;;;;;;;5074431;28;20541;-75
2021/12/26 05:12:25;;;;;;;12.53;10.33;;;;;;;;;;5092834;28;20173;-75
2021/12/26 05:14:52;;;;;;;13.20;11.13;;;;;;;;;;5089408;28;20183;-75
2021/12/26 05:17:18;;;;;;;14.20;11.53;;;;;;;;;;5072376;28;20212;-75
2021/12/26 05:19:45;;;;;;;14.40;11.37;;;;;;;;;;5070670;28;20662;-75
2021/12/26 05:22:12;;;;;;;15.23;12.07;;;;;;;;;;5092824;28;20204;-75
2021/12/26 05:24:39;;;;;;;16.03;12.23;;;;;;;;;;5075049;28;20188;-75
2021/12/26 05:27:06;;;;;;;14.03;11.00;;;;;;;;;;5075264;28;20214;-75
2021/12/26 05:29:33;;;;;;;14.80;11.60;;;;;;;;;;5057083;28;20185;-75
2021/12/26 05:31:59;;;;;;;13.43;10.97;;;;;;;;;;5092131;28;20242;-75
2021/12/26 05:34:26;;;;;;;14.27;10.97;;;;;;;;;;5092710;28;20225;-75
2021/12/26 05:36:52;;;;;;;15.97;11.87;;;;;;;;;;5091942;28;20676;-75
2021/12/26 05:39:18;;;;;;;14.13;10.97;;;;;;;;;;5092586;28;20230;-75
2021/12/26 05:41:44;;;;;;;14.10;10.93;;;;;;;;;;5092574;28;20200;-75
2021/12/26 05:44:31;;;;;;;13.80;10.77;;;;;;;;;;5077163;28;20220;-75
2021/12/26 05:46:58;;;;;;;14.37;10.17;;;;;;;;;;5074135;28;20199;-75
2021/12/26 05:49:29;;;;;;;15.23;12.03;;;;;;;;;;5059226;28;20185;-75
2021/12/26 05:52:05;;;;;;;14.03;11.00;;;;;;;;;;5091741;28;20184;-75
2021/12/26 05:54:44;;;;;;;15.93;10.70;;;;;;;;;;5091786;28;20268;-75
2021/12/26 05:57:11;;;;;;;12.57;10.27;;;;;;;;;;5091740;28;20238;-75
2021/12/26 05:59:37;;;;;;;15.23;11.60;;;;;;;;;;5090505;28;20263;-75
2021/12/26 06:02:04;;;;;;;13.93;10.93;;;;;;;;;;5091487;28;20181;-75
2021/12/26 06:04:32;;;;;;;15.00;11.30;;;;;;;;;;5074705;28;20200;-75
2021/12/26 06:06:58;;;;;;;13.90;11.20;;;;;;;;;;5078115;28;20221;-74
2021/12/26 06:09:25;;;;;;;16.00;11.17;;;;;;;;;;5071916;28;20267;-75
2021/12/26 06:11:51;;;;;;;15.23;10.97;;;;;;;;;;5054463;28;20517;-75
2021/12/26 06:14:18;;;;;;;14.20;11.57;;;;;;;;;;5091299;28;20719;-75
2021/12/26 06:16:44;;;;;;;14.70;10.80;;;;;;;;;;5091249;28;20715;-75
2021/12/26 06:19:25;;;;;;;14.03;11.00;;;;;;;;;;5086662;28;20184;-75
2021/12/26 06:22:10;;;;;;;15.10;11.40;;;;;;;;;;5092005;28;20180;-75
2021/12/26 06:25:03;;;;;;;15.57;12.13;;;;;;;;;;5071326;28;20255;-75
2021/12/26 06:27:34;;;;;;;13.10;10.50;;;;;;;;;;5071251;28;20678;-75
2021/12/26 06:30:23;;;;;;;13.30;10.30;;;;;;;;;;5065150;28;20200;-74
2021/12/26 06:33:12;;;;;;;13.73;10.63;;;;;;;;;;5084187;28;20246;-75
2021/12/26 06:35:44;;;;;;;13.73;10.73;;;;;;;;;;5083814;28;20208;-75
2021/12/26 06:38:31;;;;;;;12.87;10.10;;;;;;;;;;5072040;28;20200;-75
2021/12/26 06:41:17;;;;;;;16.13;11.90;;;;;;;;;;5074317;28;20652;-74
2021/12/26 06:44:02;;;;;;;14.80;11.23;;;;;;;;;;5092316;28;20227;-74
2021/12/26 06:46:49;;;;;;;16.10;11.63;;;;;;;;;;5075510;28;20215;-75
2021/12/26 06:49:35;;;;;;;16.97;13.13;;;;;;;;;;5085472;28;20200;-75
2021/12/26 06:52:03;;;;;;;17.30;13.43;;;;;;;;;;5076917;28;20192;-75
2021/12/26 06:54:30;;;;;;;17.73;12.97;;;;;;;;;;5087042;28;20196;-75
2021/12/26 06:56:56;;;;;;;17.00;12.43;;;;;;;;;;5075430;28;20208;-75
2021/12/26 06:59:23;;;;;;;15.37;11.70;;;;;;;;;;5054273;28;20384;-75
2021/12/26 07:01:49;;;;;;;15.57;12.03;;;;;;;;;;5091180;28;20230;-75
2021/12/26 07:04:18;;;;;;;17.10;12.00;;;;;;;;;;5085321;28;20230;-75
2021/12/26 07:06:44;;;;;;;16.40;12.13;;;;;;;;;;5090631;28;20207;-75
2021/12/26 07:09:20;;;;;;;17.03;12.70;;;;;;;;;;5071094;28;20259;-75
2021/12/26 07:11:47;;;;;;;19.00;13.43;;;;;;;;;;5090559;28;20264;-75
2021/12/26 07:14:25;;;;;;;16.60;11.90;;;;;;;;;;5090660;28;20218;-75
2021/12/26 07:16:52;;;;;;;16.50;11.83;;;;;;;;;;5090229;28;20204;-75
2021/12/26 07:19:19;;;;;;;18.20;12.77;;;;;;;;;;5069887;28;20219;-75
2021/12/26 07:21:45;;;;;;;17.00;12.40;;;;;;;;;;5081787;28;20192;-75
2021/12/26 07:24:12;;;;;;;17.30;12.27;;;;;;;;;;5075895;28;20199;-75
2021/12/26 07:26:39;;;;;;;18.37;13.67;;;;;;;;;;5073075;28;20192;-75
2021/12/26 07:29:25;;;;;;;19.87;13.87;;;;;;;;;;5086094;28;20272;-75
2021/12/26 07:31:51;;;;;;;18.57;12.87;;;;;;;;;;5063216;28;20180;-74
2021/12/26 07:34:17;;;;;;;19.07;13.97;;;;;;;;;;5089030;28;20208;-75
2021/12/26 07:36:44;;;;;;;17.00;12.80;;;;;;;;;;5088932;28;20491;-75
2021/12/26 07:39:20;;;;;;;17.93;12.73;;;;;;;;;;5089581;28;20298;-75
2021/12/26 07:41:46;;;;;;;21.33;15.47;;;;;;;;;;5071796;28;20666;-75
2021/12/26 07:44:31;;;;;;;17.87;13.30;;;;;;;;;;5073734;28;20254;-75
2021/12/26 07:47:23;;;;;;;19.43;13.60;;;;;;;;;;5089032;28;20176;-78
2021/12/26 07:49:52;;;;;;;19.90;13.37;;;;;;;;;;5072509;28;20207;-79
2021/12/26 07:52:41;;;;;;;18.17;12.80;;;;;;;;;;5090886;28;20668;-78
2021/12/26 07:55:25;;;;;;;19.43;13.50;;;;;;;;;;5079596;28;20246;-80
2021/12/26 07:58:11;;;;;;;19.50;13.83;;;;;;;;;;5079721;28;20609;-79
2021/12/26 08:00:56;;;;;;;21.80;15.10;;;;;;;;;;5091320;28;20724;-78
2021/12/26 08:03:39;;;;;;;19.57;13.90;;;;;;;;;;5076410;28;20247;-78
2021/12/26 08:06:24;;;;;;;20.37;14.03;;;;;;;;;;5083226;28;20197;-78
2021/12/26 08:08:52;;;;;;;20.10;14.17;;;;;;;;;;5063444;28;20181;-83
2021/12/26 08:11:18;;;;;;;19.73;13.90;;;;;;;;;;5057776;28;20177;-78
2021/12/26 08:13:45;;;;;;;20.83;14.20;;;;;;;;;;5051810;28;20238;-85
2021/12/26 08:16:11;;;;;;;18.13;12.83;;;;;;;;;;5056984;28;20205;-79
2021/12/26 08:18:37;;;;;;;22.93;14.87;;;;;;;;;;5074447;28;20571;-79
2021/12/26 08:21:04;;;;;;;20.93;14.53;;;;;;;;;;5072063;28;20173;-79
2021/12/26 08:23:30;;;;;;;23.57;15.90;;;;;;;;;;5090215;28;20204;-79
2021/12/26 08:25:57;;;;;;;25.00;16.37;;;;;;;;;;5078470;28;20203;-79
2021/12/26 08:28:23;;;;;;;26.03;17.40;;;;;;;;;;5077632;28;20169;-79
2021/12/26 08:30:49;;;;;;;25.40;16.93;;;;;;;;;;5093262;28;20173;-79
2021/12/26 08:33:16;;;;;;;30.07;18.00;;;;;;;;;;5053135;28;20192;-80
2021/12/26 08:35:43;;;;;;;25.60;17.47;;;;;;;;;;5073619;28;20216;-82
2021/12/26 08:38:10;;;;;;;24.87;16.77;;;;;;;;;;5092520;28;20173;-79
2021/12/26 08:40:36;;;;;;;26.03;16.33;;;;;;;;;;5092717;28;20191;-79
2021/12/26 08:43:02;;;;;;;22.93;16.10;;;;;;;;;;5085256;28;20212;-76
2021/12/26 08:45:29;;;;;;;22.27;15.13;;;;;;;;;;5067415;28;20208;-79
2021/12/26 08:47:56;;;;;;;22.97;15.23;;;;;;;;;;5087159;28;20177;-89
2021/12/26 08:50:24;;;;;;;25.00;17.00;;;;;;;;;;5078878;28;20199;-78
2021/12/26 08:52:51;;;;;;;25.13;18.10;;;;;;;;;;5058491;28;20527;-80
2021/12/26 08:55:19;;;;;;;26.27;18.17;;;;;;;;;;5059713;28;20571;-80
2021/12/26 08:57:46;;;;;;;25.47;17.53;;;;;;;;;;5077006;28;20169;-82
2021/12/26 09:00:12;;;;;;;27.10;17.20;;;;;;;;;;5060626;28;20181;-80
2021/12/26 09:02:39;;;;;;;27.23;17.63;;;;;;;;;;5057072;28;20193;-80
2021/12/26 09:05:05;;;;;;;26.90;17.00;;;;;;;;;;5090732;28;20165;-80
2021/12/26 09:07:32;;;;;;;29.63;18.67;;;;;;;;;;5057943;28;20269;-79
2021/12/26 09:09:58;;;;;;;28.37;18.77;;;;;;;;;;5071232;28;20181;-79
2021/12/26 09:12:25;;;;;;;30.47;18.87;;;;;;;;;;5063106;28;20271;-80
2021/12/26 09:14:51;;;;;;;26.33;16.63;;;;;;;;;;5081758;28;20652;-80
2021/12/26 09:17:17;;;;;;;27.57;17.93;;;;;;;;;;5079033;28;20180;-80
2021/12/26 09:19:44;;;;;;;31.53;18.07;;;;;;;;;;5062450;28;20182;-80
2021/12/26 09:22:15;;;;;;;30.30;16.73;;;;;;;;;;5078807;28;20648;-80
2021/12/26 09:24:42;;;;;;;22.67;15.33;;;;;;;;;;5066288;28;20251;-80
2021/12/26 09:27:08;;;;;;;22.17;15.80;;;;;;;;;;5083992;28;20660;-80
2021/12/26 09:29:35;;;;;;;24.10;16.23;;;;;;;;;;5063869;28;20206;-79
2021/12/26 09:32:04;;;;;;;25.57;16.90;;;;;;;;;;5061515;28;20854;-80
2021/12/26 09:34:32;;;;;;;24.73;16.93;;;;;;;;;;5059270;28;1027612;-80
2021/12/26 09:36:59;;;;;;;25.07;17.53;;;;;;;;;;5076485;28;20296;-80
2021/12/26 09:39:25;;;;;;;25.73;16.30;;;;;;;;;;5093190;28;20192;-80
2021/12/26 09:41:51;;;;;;;22.80;16.40;;;;;;;;;;5060175;28;20185;-80
2021/12/26 09:44:18;;;;;;;22.97;15.40;;;;;;;;;;5093501;28;20248;-80
2021/12/26 09:46:44;;;;;;;25.33;15.93;;;;;;;;;;5076429;28;20683;-80
2021/12/26 09:49:10;;;;;;;21.20;14.83;;;;;;;;;;5076798;28;20188;-80
2021/12/26 09:51:36;;;;;;;22.97;16.30;;;;;;;;;;5093497;28;20177;-80
2021/12/26 09:54:04;;;;;;;27.07;17.50;;;;;;;;;;5076795;28;20622;-80
2021/12/26 09:56:30;;;;;;;26.57;17.17;;;;;;;;;;5059384;28;20691;-80
2021/12/26 09:58:59;;;;;;;24.73;17.30;;;;;;;;;;5077334;28;20183;-80
2021/12/26 10:01:29;;;;;;;31.90;18.40;;;;;;;;;;5060271;28;20723;-80
2021/12/26 10:03:55;;;;;;;27.87;18.50;;;;;;;;;;5059984;28;20291;-80
2021/12/26 10:06:21;;;;;;;29.80;17.13;;;;;;;;;;5076379;28;20257;-80
2021/12/26 10:08:52;;;;;;;31.57;20.03;;;;;;;;;;5076591;28;20200;-80
2021/12/26 10:11:19;;;;;;;27.47;18.90;;;;;;;;;;5094653;28;20214;-80
2021/12/26 10:13:49;;;;;;;29.13;18.30;;;;;;;;;;5077756;28;20566;-80
2021/12/26 10:16:16;;;;;;;29.03;19.00;;;;;;;;;;5077593;28;20216;-80
2021/12/26 10:18:43;;;;;;;26.13;17.07;;;;;;;;;;5076767;28;20652;-80
2021/12/26 10:21:42;;;;;;;23.93;16.23;;;;;;;;;;5059924;28;20191;-80
2021/12/26 10:24:11;;;;;;;25.07;16.60;;;;;;;;;;5006174;28;20230;-80
2021/12/26 10:26:40;;;;;;;30.70;19.67;;;;;;;;;;5075851;28;20219;-80
2021/12/26 10:29:20;;;;;;;29.17;17.73;;;;;;;;;;5075888;28;20215;-81
2021/12/26 10:31:49;;;;;;;27.10;18.90;;;;;;;;;;5059152;28;20192;-80
2021/12/26 10:34:17;;;;;;;27.10;17.50;;;;;;;;;;5092198;28;20192;-80
2021/12/26 10:36:45;;;;;;;29.43;18.00;;;;;;;;;;5058136;28;20223;-79
2021/12/26 10:39:12;;;;;;;28.10;18.07;;;;;;;;;;5058806;28;20211;-79
2021/12/26 10:41:43;;;;;;;29.83;19.60;;;;;;;;;;5076187;28;20177;-79
2021/12/26 10:44:23;;;;;;;29.40;17.83;;;;;;;;;;5092180;28;20191;-79
2021/12/26 10:46:51;;;;;;;34.57;21.53;;;;;;;;;;5090917;28;20223;-79
2021/12/26 10:49:35;;;;;;;32.67;20.73;;;;;;;;;;5093077;28;20208;-80
2021/12/26 10:52:02;;;;;;;27.33;19.20;;;;;;;;;;5056715;28;20780;-85
2021/12/26 10:54:31;;;;;;;27.67;18.57;;;;;;;;;;5092789;28;20234;-77
2021/12/26 10:57:12;;;;;;;26.73;18.60;;;;;;;;;;5092856;28;20208;-80
2021/12/26 10:59:39;;;;;;;28.33;18.73;;;;;;;;;;5048135;28;20176;-76
2021/12/26 11:02:05;;;;;;;22.47;15.87;;;;;;;;;;5094163;28;20184;-81
2021/12/26 11:04:32;;;;;;;24.77;17.07;;;;;;;;;;5074925;28;20299;-80
2021/12/26 11:07:03;;;;;;;26.20;17.33;;;;;;;;;;5092229;28;20212;-80
2021/12/26 11:09:29;;;;;;;28.77;18.43;;;;;;;;;;5091648;28;20175;-81
2021/12/26 11:12:06;;;;;;;25.20;16.83;;;;;;;;;;5074303;28;20188;-81
2021/12/26 11:14:33;;;;;;;29.43;18.47;;;;;;;;;;5098784;28;20184;-81
2021/12/26 11:16:59;;;;;;;30.10;19.50;;;;;;;;;;5076442;28;20234;-81
2021/12/26 11:19:41;;;;;;;27.00;17.90;;;;;;;;;;5078393;28;20700;-78
2021/12/26 11:22:07;;;;;;;28.33;18.93;;;;;;;;;;5081646;28;20258;-81
2021/12/26 11:24:34;;;;;;;25.20;17.53;;;;;;;;;;5069946;28;20201;-78
2021/12/26 11:27:02;;;;;;;23.33;16.33;;;;;;;;;;5089626;28;20205;-79
2021/12/26 11:29:28;;;;;;;30.03;18.60;;;;;;;;;;5058798;28;20212;-84
2021/12/26 11:31:55;;;;;;;27.20;18.27;;;;;;;;;;5069096;28;20192;-83
2021/12/26 11:34:22;;;;;;;28.47;18.63;;;;;;;;;;5078232;28;20200;-82
2021/12/26 11:36:52;;;;;;;26.97;18.57;;;;;;;;;;5080141;28;20220;-81
2021/12/26 11:39:39;;;;;;;24.67;16.93;;;;;;;;;;5077499;28;20301;-83
2021/12/26 11:42:36;;;;;;;23.27;15.90;;;;;;;;;;5081955;28;20187;-82
2021/12/26 11:45:25;;;;;;;26.63;17.03;;;;;;;;;;5079205;28;20723;-83
2021/12/26 11:48:24;;;;;;;30.03;18.90;;;;;;;;;;5096078;28;20199;-84
2021/12/26 11:51:20;;;;;;;27.47;17.83;;;;;;;;;;5092695;28;20204;-79
2021/12/26 11:54:24;;;;;;;24.83;16.47;;;;;;;;;;5091919;28;20645;-79
2021/12/26 11:56:59;;;;;;;29.47;18.07;;;;;;;;;;5074313;28;20216;-79
2021/12/26 11:59:33;;;;;;;31.00;19.73;;;;;;;;;;5065000;28;20188;-80
2021/12/26 12:01:59;;;;;;;29.80;19.27;;;;;;;;;;5073605;28;20249;-82
2021/12/26 12:04:26;;;;;;;33.63;19.80;;;;;;;;;;5069118;28;20201;-82
2021/12/26 12:06:54;;;;;;;30.83;19.70;;;;;;;;;;5094549;28;20212;-82
2021/12/26 12:09:35;;;;;;;29.90;19.77;;;;;;;;;;5076959;28;20172;-81
2021/12/26 12:12:10;;;;;;;33.43;20.60;;;;;;;;;;5071815;28;20185;-83
2021/12/26 12:14:42;;;;;;;28.70;19.93;;;;;;;;;;5089927;28;20199;-83
2021/12/26 12:17:19;;;;;;;30.83;19.87;;;;;;;;;;5059106;28;20202;-79
2021/12/26 12:20:04;;;;;;;35.20;21.10;;;;;;;;;;5056426;28;20242;-81
2021/12/26 12:22:30;;;;;;;30.37;19.67;;;;;;;;;;5091339;28;20192;-81
2021/12/26 12:24:56;;;;;;;30.70;19.17;;;;;;;;;;5075152;28;20263;-81
2021/12/26 12:27:23;;;;;;;30.00;18.67;;;;;;;;;;5074959;28;20538;-81
2021/12/26 12:29:51;;;;;;;31.53;19.00;;;;;;;;;;5075110;28;20174;-81
2021/12/26 12:32:19;;;;;;;32.20;19.60;;;;;;;;;;5064923;28;20238;-82
2021/12/26 12:34:47;;;;;;;35.70;19.93;;;;;;;;;;5087595;28;20205;-79
2021/12/26 12:37:26;;;;;;;32.83;19.40;;;;;;;;;;5096220;28;20200;-84
2021/12/26 12:40:09;;;;;;;34.13;19.97;;;;;;;;;;5078230;28;20199;-80
2021/12/26 12:42:36;;;;;;;30.13;19.10;;;;;;;;;;5056122;28;20177;-82
2021/12/26 12:45:04;;;;;;;28.27;18.83;;;;;;;;;;5058327;28;20198;-83
2021/12/26 12:47:30;;;;;;;27.90;18.30;;;;;;;;;;5088660;28;20190;-84
2021/12/26 12:50:03;;;;;;;31.03;19.10;;;;;;;;;;5054387;28;20720;-81
2021/12/26 12:52:38;;;;;;;29.53;20.10;;;;;;;;;;5090441;28;20249;-81
2021/12/26 12:55:06;;;;;;;29.27;18.33;;;;;;;;;;5076589;28;20176;-80
2021/12/26 12:57:35;;;;;;;27.67;18.33;;;;;;;;;;5093045;28;20184;-77
2021/12/26 13:00:02;;;;;;;34.47;20.47;;;;;;;;;;5092303;28;20201;-77
2021/12/26 13:02:34;;;;;;;31.60;20.43;;;;;;;;;;5074026;28;20230;-77
2021/12/26 13:05:00;;;;;;;29.23;18.97;;;;;;;;;;5051282;28;20189;-80
2021/12/26 13:07:29;;;;;;;36.30;22.13;;;;;;;;;;5074231;28;20177;-77
2021/12/26 13:09:56;;;;;;;29.83;18.73;;;;;;;;;;5083957;28;20184;-78
2021/12/26 13:12:23;;;;;;;36.90;22.63;;;;;;;;;;5098919;28;20173;-78
2021/12/26 13:14:54;;;;;;;32.53;20.37;;;;;;;;;;5098018;28;20176;-85
2021/12/26 13:17:26;;;;;;;30.03;20.37;;;;;;;;;;5075673;28;20189;-78
2021/12/26 13:19:54;;;;;;;30.93;19.60;;;;;;;;;;5077419;28;20405;-77
2021/12/26 13:22:22;;;;;;;31.50;21.03;;;;;;;;;;5083186;28;20177;-77
2021/12/26 13:24:48;;;;;;;33.77;20.10;;;;;;;;;;5093136;28;20200;-77
2021/12/26 13:27:22;;;;;;;33.17;20.50;;;;;;;;;;5093226;28;20196;-77
2021/12/26 13:29:49;;;;;;;33.87;20.70;;;;;;;;;;5092057;28;20200;-77
2021/12/26 13:32:15;;;;;;;39.00;22.30;;;;;;;;;;5089359;28;20188;-77
2021/12/26 13:34:51;;;;;;;35.83;19.83;;;;;;;;;;5072242;28;20318;-76
2021/12/26 13:37:17;;;;;;;32.93;20.17;;;;;;;;;;5086179;28;20662;-77
2021/12/26 13:39:43;;;;;;;27.57;17.77;;;;;;;;;;5093180;28;20276;-77
2021/12/26 13:42:09;;;;;;;30.87;19.37;;;;;;;;;;5093204;28;20254;-78
2021/12/26 13:44:43;;;;;;;33.77;19.60;;;;;;;;;;5092993;28;20644;-77
2021/12/26 13:47:10;;;;;;;36.27;21.00;;;;;;;;;;5083588;28;20197;-77
2021/12/26 13:49:37;;;;;;;33.73;21.00;;;;;;;;;;5076432;28;20177;-77
2021/12/26 13:52:03;;;;;;;31.63;20.03;;;;;;;;;;5093895;28;20188;-78
2021/12/26 13:54:37;;;;;;;32.80;19.60;;;;;;;;;;5093871;28;20180;-78
2021/12/26 13:57:10;;;;;;;29.83;18.27;;;;;;;;;;5089230;28;20743;-77
2021/12/26 13:59:38;;;;;;;29.07;17.87;;;;;;;;;;5091096;28;20195;-78
2021/12/26 14:02:13;;;;;;;33.63;19.83;;;;;;;;;;5075516;28;20184;-78
2021/12/26 14:04:41;;;;;;;36.33;20.50;;;;;;;;;;5093006;28;20208;-78
2021/12/26 14:07:11;;;;;;;36.57;21.80;;;;;;;;;;5092012;28;20704;-78
2021/12/26 14:09:38;;;;;;;33.70;21.07;;;;;;;;;;5071653;28;20188;-78
2021/12/26 14:12:04;;;;;;;29.23;18.87;;;;;;;;;;5086693;28;20181;-76
2021/12/26 14:14:35;;;;;;;29.03;17.63;;;;;;;;;;5092980;28;20192;-77
2021/12/26 14:17:11;;;;;;;33.57;19.83;;;;;;;;;;5091363;28;20203;-77
2021/12/26 14:19:37;;;;;;;31.30;19.77;;;;;;;;;;5090607;28;20192;-78
2021/12/26 14:22:03;;;;;;;30.80;18.57;;;;;;;;;;5089598;28;20180;-78
2021/12/26 14:24:31;;;;;;;31.30;18.57;;;;;;;;;;5094258;28;20205;-77
2021/12/26 14:26:58;;;;;;;31.23;19.03;;;;;;;;;;5084188;28;20245;-76
2021/12/26 14:29:24;;;;;;;34.80;21.70;;;;;;;;;;5095283;28;20169;-76
2021/12/26 14:31:52;;;;;;;34.07;21.57;;;;;;;;;;5088379;28;20198;-77
2021/12/26 14:34:20;;;;;;;39.90;24.07;;;;;;;;;;5069935;28;20289;-77
2021/12/26 14:36:53;;;;;;;35.93;21.73;;;;;;;;;;5073645;28;20200;-79
2021/12/26 14:39:27;;;;;;;35.27;22.20;;;;;;;;;;5052776;28;20193;-78
2021/12/26 14:41:54;;;;;;;37.50;21.50;;;;;;;;;;5086353;28;20169;-78
2021/12/26 14:44:22;;;;;;;36.30;23.27;;;;;;;;;;5057908;28;20201;-81